createdAt,value
2023-01-30T00:01:37.575Z,92.19
2023-01-30T00:04:03.935Z,92.19
2023-01-30T00:06:30.232Z,92.24
2023-01-30T00:08:56.640Z,92.03
2023-01-30T00:11:23.574Z,91.86
2023-01-30T00:13:50.816Z,91.94
2023-01-30T00:16:18.170Z,92.48
2023-01-30T00:18:44.758Z,92.37
2023-01-30T00:21:13.644Z,92.36
2023-01-30T00:23:40.731Z,92.27
2023-01-30T00:26:07.723Z,92.06
2023-01-30T00:28:34.314Z,92.33
2023-01-30T00:31:00.719Z,92.21
2023-01-30T00:33:27.960Z,92.44
2023-01-30T00:35:56.008Z,92.40
2023-01-30T00:38:23.758Z,91.96
2023-01-30T00:40:50.456Z,92.38
2023-01-30T00:43:19.193Z,92.48
2023-01-30T00:45:46.504Z,92.79
2023-01-30T00:48:12.951Z,93.17
2023-01-30T00:50:39.743Z,93.53
2023-01-30T00:53:06.139Z,93.24
2023-01-30T00:55:32.434Z,93.01
2023-01-30T00:57:58.734Z,93.24
2023-01-30T01:00:25.132Z,92.64
2023-01-30T01:02:51.437Z,93.00
2023-01-30T01:05:17.941Z,93.07
2023-01-30T01:07:44.373Z,93.19
2023-01-30T01:10:11.152Z,92.96
2023-01-30T01:12:37.447Z,93.13
2023-01-30T01:15:04.103Z,93.62
2023-01-30T01:17:30.432Z,94.15
2023-01-30T01:19:56.788Z,94.34
2023-01-30T01:22:23.081Z,94.75
2023-01-30T01:24:49.393Z,95.18
2023-01-30T01:27:15.696Z,94.92
2023-01-30T01:29:42.019Z,94.96
2023-01-30T01:32:08.486Z,95.40
2023-01-30T01:34:34.833Z,95.37
2023-01-30T01:37:01.132Z,95.36
2023-01-30T01:39:27.452Z,95.89
2023-01-30T01:41:53.751Z,96.46
2023-01-30T01:44:20.081Z,96.11
2023-01-30T01:46:58.159Z,96.40
2023-01-30T01:49:35.220Z,97.04
2023-01-30T01:52:07.164Z,97.09
2023-01-30T01:54:47.068Z,97.42
2023-01-30T01:57:21.766Z,97.50
2023-01-30T02:00:05.048Z,97.28
2023-01-30T02:02:31.402Z,97.33
2023-01-30T02:04:58.798Z,97.41
2023-01-30T02:07:25.509Z,97.83
2023-01-30T02:09:52.051Z,98.05
2023-01-30T02:12:18.531Z,98.26
2023-01-30T02:14:45.231Z,98.58
2023-01-30T02:17:11.563Z,98.96
2023-01-30T02:19:46.903Z,98.91
2023-01-30T02:22:31.755Z,98.88
2023-01-30T02:25:25.274Z,99.14
2023-01-30T02:28:21.519Z,99.38
2023-01-30T02:31:22.069Z,99.66
2023-01-30T02:34:07.842Z,99.17
2023-01-30T02:36:42.837Z,99.25
2023-01-30T02:39:25.320Z,99.42
2023-01-30T02:42:10.095Z,100.00
2023-01-30T02:44:50.514Z,99.95
2023-01-30T02:47:31.960Z,99.90
2023-01-30T02:50:04.023Z,99.82
2023-01-30T02:52:31.341Z,100.00
2023-01-30T02:54:57.655Z,100.00
2023-01-30T02:57:25.210Z,100.00
2023-01-30T02:59:56.748Z,100.00
2023-01-30T03:02:38.897Z,100.00
2023-01-30T03:05:20.642Z,100.00
2023-01-30T03:08:19.916Z,100.00
2023-01-30T03:11:01.997Z,100.00
2023-01-30T03:13:40.741Z,100.00
2023-01-30T03:16:12.773Z,100.00
2023-01-30T03:18:43.320Z,100.00
2023-01-30T03:21:10.884Z,100.00
2023-01-30T03:23:37.357Z,100.00
2023-01-30T03:26:05.915Z,100.00
2023-01-30T03:28:33.012Z,100.00
2023-01-30T03:30:59.409Z,100.00
2023-01-30T03:33:25.768Z,100.00
2023-01-30T03:35:52.738Z,100.00
2023-01-30T03:38:19.597Z,100.00
2023-01-30T03:40:46.010Z,100.00
2023-01-30T03:43:12.334Z,100.00
2023-01-30T03:45:38.658Z,100.00
2023-01-30T03:48:05.113Z,100.00
2023-01-30T03:50:31.437Z,100.00
2023-01-30T03:52:57.818Z,100.00
2023-01-30T03:55:24.121Z,100.00
2023-01-30T03:57:55.228Z,100.00
2023-01-30T04:00:21.784Z,100.00
2023-01-30T04:02:48.202Z,100.00
2023-01-30T04:05:14.588Z,100.00
2023-01-30T04:07:40.946Z,100.00
2023-01-30T04:10:07.702Z,100.00
2023-01-30T04:12:34.009Z,100.00
2023-01-30T04:15:00.347Z,100.00
2023-01-30T04:17:26.668Z,100.00
2023-01-30T04:19:52.967Z,100.00
2023-01-30T04:22:19.280Z,100.00
2023-01-30T04:24:45.596Z,100.00
2023-01-30T04:27:11.903Z,100.00
2023-01-30T04:29:38.210Z,100.00
2023-01-30T04:32:04.656Z,100.00
2023-01-30T04:34:30.974Z,100.00
2023-01-30T04:36:57.320Z,100.00
2023-01-30T04:39:23.629Z,100.00
2023-01-30T04:41:51.082Z,100.00
2023-01-30T04:44:17.405Z,100.00
2023-01-30T04:46:43.738Z,100.00
2023-01-30T04:49:11.061Z,100.00
2023-01-30T04:51:37.396Z,100.00
2023-01-30T04:54:03.954Z,100.00
2023-01-30T04:56:30.278Z,100.00
2023-01-30T04:58:56.574Z,100.00
2023-01-30T05:01:31.488Z,100.00
2023-01-30T05:03:57.869Z,100.00
2023-01-30T05:06:24.928Z,100.00
2023-01-30T05:08:52.857Z,100.00
2023-01-30T05:11:20.787Z,100.00
2023-01-30T05:13:47.883Z,100.00
2023-01-30T05:16:15.194Z,100.00
2023-01-30T05:18:42.311Z,100.00
2023-01-30T05:21:28.920Z,100.00
2023-01-30T05:23:56.397Z,100.00
2023-01-30T05:26:22.959Z,100.00
2023-01-30T05:28:56.855Z,100.00
2023-01-30T05:31:23.730Z,100.00
2023-01-30T05:33:51.163Z,100.00
2023-01-30T05:36:19.826Z,100.00
2023-01-30T05:38:46.317Z,100.00
2023-01-30T05:41:14.627Z,100.00
2023-01-30T05:43:41.481Z,100.00
2023-01-30T05:46:11.093Z,100.00
2023-01-30T05:48:37.552Z,100.00
2023-01-30T05:51:03.939Z,100.00
2023-01-30T05:53:32.954Z,100.00
2023-01-30T05:56:01.962Z,100.00
2023-01-30T05:58:29.267Z,100.00
2023-01-30T06:01:03.289Z,100.00
2023-01-30T06:03:30.129Z,99.96
2023-01-30T06:05:56.500Z,100.00
2023-01-30T06:08:23.358Z,100.00
2023-01-30T06:10:49.796Z,100.00
2023-01-30T06:13:16.099Z,100.00
2023-01-30T06:15:43.343Z,100.00
2023-01-30T06:18:09.772Z,100.00
2023-01-30T06:20:36.359Z,100.00
2023-01-30T06:23:02.682Z,100.00
2023-01-30T06:25:28.982Z,100.00
2023-01-30T06:27:55.319Z,100.00
2023-01-30T06:30:21.650Z,100.00
2023-01-30T06:32:51.609Z,100.00
2023-01-30T06:35:18.142Z,100.00
2023-01-30T06:37:45.511Z,100.00
2023-01-30T06:40:12.561Z,100.00
2023-01-30T06:42:38.875Z,100.00
2023-01-30T06:45:05.728Z,100.00
2023-01-30T06:47:32.022Z,100.00
2023-01-30T06:49:58.312Z,99.95
2023-01-30T06:52:24.876Z,99.61
2023-01-30T06:54:51.163Z,99.69
2023-01-30T06:57:17.496Z,99.54
2023-01-30T06:59:43.788Z,99.39
2023-01-30T07:02:12.875Z,98.89
2023-01-30T07:04:39.243Z,98.76
2023-01-30T07:07:07.011Z,98.07
2023-01-30T07:09:33.543Z,98.50
2023-01-30T07:11:59.835Z,98.43
2023-01-30T07:14:26.169Z,98.16
2023-01-30T07:16:52.518Z,97.55
2023-01-30T07:19:18.859Z,97.29
2023-01-30T07:21:45.143Z,96.71
2023-01-30T07:24:11.456Z,96.56
2023-01-30T07:26:37.773Z,96.54
2023-01-30T07:29:04.094Z,94.82
2023-01-30T07:31:30.408Z,92.43
2023-01-30T07:33:56.725Z,92.31
2023-01-30T07:36:23.017Z,91.05
2023-01-30T07:38:49.313Z,89.82
2023-01-30T07:41:15.789Z,90.97
2023-01-30T07:43:42.096Z,90.03
2023-01-30T07:46:08.881Z,89.29
2023-01-30T07:48:35.181Z,88.74
2023-01-30T07:51:01.499Z,87.86
2023-01-30T07:53:27.827Z,88.21
2023-01-30T07:55:54.138Z,88.10
2023-01-30T07:58:20.440Z,86.83
2023-01-30T08:00:46.800Z,86.77
2023-01-30T08:03:15.273Z,86.97
2023-01-30T08:05:41.600Z,86.18
2023-01-30T08:08:07.962Z,85.56
2023-01-30T08:10:34.274Z,85.06
2023-01-30T08:13:00.613Z,83.98
2023-01-30T08:15:26.944Z,83.10
2023-01-30T08:17:57.381Z,83.17
2023-01-30T08:20:25.186Z,83.26
2023-01-30T08:22:51.523Z,82.94
2023-01-30T08:25:17.844Z,82.27
2023-01-30T08:27:44.253Z,82.15
2023-01-30T08:30:11.688Z,82.17
2023-01-30T08:32:37.994Z,81.77
2023-01-30T08:35:04.645Z,81.89
2023-01-30T08:37:30.988Z,81.50
2023-01-30T08:39:57.318Z,82.29
2023-01-30T08:42:23.675Z,82.98
2023-01-30T08:44:50.112Z,82.20
2023-01-30T08:47:16.428Z,81.66
2023-01-30T08:49:42.750Z,82.74
2023-01-30T08:52:10.362Z,82.54
2023-01-30T08:54:36.655Z,82.78
2023-01-30T08:57:03.040Z,81.02
2023-01-30T08:59:29.393Z,81.16
2023-01-30T09:01:55.694Z,81.14
2023-01-30T09:04:22.005Z,80.80
2023-01-30T09:06:48.309Z,80.20
2023-01-30T09:09:14.605Z,80.42
2023-01-30T09:11:40.941Z,79.19
2023-01-30T09:14:07.257Z,79.44
2023-01-30T09:16:33.593Z,79.08
2023-01-30T09:18:59.905Z,77.99
2023-01-30T09:21:26.378Z,78.73
2023-01-30T09:23:52.681Z,77.51
2023-01-30T09:26:19.035Z,76.11
2023-01-30T09:28:45.353Z,75.21
2023-01-30T09:31:11.748Z,75.90
2023-01-30T09:33:38.173Z,75.12
2023-01-30T09:36:04.874Z,74.66
2023-01-30T09:38:31.166Z,75.29
2023-01-30T09:41:00.495Z,76.45
2023-01-30T09:44:08.489Z,76.03
2023-01-30T09:47:05.042Z,76.69
2023-01-30T09:50:00.505Z,76.25
2023-01-30T09:52:40.616Z,75.79
2023-01-30T09:55:40.742Z,76.86
2023-01-30T09:58:17.271Z,77.04
2023-01-30T10:00:43.744Z,76.63
2023-01-30T10:03:14.268Z,75.51
2023-01-30T10:05:46.707Z,75.95
2023-01-30T10:08:46.829Z,75.13
2023-01-30T10:11:31.273Z,74.97
2023-01-30T10:14:32.099Z,73.94
2023-01-30T10:17:32.314Z,74.33
2023-01-30T10:20:24.213Z,73.33
2023-01-30T10:23:02.974Z,74.48
2023-01-30T10:25:35.735Z,73.02
2023-01-30T10:28:09.787Z,73.71
2023-01-30T10:30:36.211Z,74.56
2023-01-30T10:33:15.665Z,73.98
2023-01-30T10:35:43.564Z,73.85
2023-01-30T10:38:28.764Z,74.46
2023-01-30T10:41:00.736Z,73.70
2023-01-30T10:43:48.429Z,74.57
2023-01-30T10:46:36.450Z,76.30
2023-01-30T10:49:11.349Z,79.98
2023-01-30T10:51:46.537Z,81.14
2023-01-30T10:54:29.544Z,82.66
2023-01-30T10:57:14.551Z,82.24
2023-01-30T10:59:53.100Z,84.68
2023-01-30T11:02:51.371Z,87.80
2023-01-30T11:05:25.575Z,88.37
2023-01-30T11:07:52.317Z,87.43
2023-01-30T11:10:23.301Z,86.58
2023-01-30T11:12:55.557Z,84.81
2023-01-30T11:15:22.010Z,84.17
2023-01-30T11:17:48.427Z,81.98
2023-01-30T11:20:18.422Z,80.95
2023-01-30T11:22:49.194Z,79.80
2023-01-30T11:25:19.337Z,77.75
2023-01-30T11:27:55.903Z,77.50
2023-01-30T11:30:28.886Z,76.77
2023-01-30T11:33:11.719Z,77.78
2023-01-30T11:35:52.003Z,74.92
2023-01-30T11:38:27.529Z,75.60
2023-01-30T11:41:10.612Z,75.05
2023-01-30T11:43:39.939Z,74.44
2023-01-30T11:46:08.092Z,74.16
2023-01-30T11:49:06.198Z,74.18
2023-01-30T11:51:28.186Z,75.67
2023-01-30T11:54:01.234Z,75.20
2023-01-30T11:56:37.026Z,74.12
2023-01-30T11:59:07.199Z,74.84
2023-01-30T12:01:36.585Z,74.29
2023-01-30T12:04:08.192Z,75.53
2023-01-30T12:06:38.092Z,73.88
2023-01-30T12:09:05.299Z,73.14
2023-01-30T12:11:42.463Z,73.19
2023-01-30T12:14:18.981Z,71.83
2023-01-30T12:16:52.631Z,70.78
2023-01-30T12:19:35.640Z,69.65
2023-01-30T12:22:19.927Z,68.42
2023-01-30T12:24:57.164Z,69.01
2023-01-30T12:27:48.676Z,68.96
2023-01-30T12:30:25.179Z,70.47
2023-01-30T12:32:56.152Z,73.12
2023-01-30T12:35:35.936Z,78.35
2023-01-30T12:38:07.220Z,83.45
2023-01-30T12:40:47.193Z,87.66
2023-01-30T12:43:59.100Z,91.90
2023-01-30T12:46:52.889Z,94.43
2023-01-30T12:49:34.705Z,96.52
2023-01-30T12:52:16.146Z,95.55
2023-01-30T12:55:02.367Z,97.07
2023-01-30T12:57:43.093Z,98.01
2023-01-30T13:00:31.116Z,98.89
2023-01-30T13:03:32.917Z,99.40
2023-01-30T13:06:17.433Z,98.09
2023-01-30T13:09:01.119Z,97.20
2023-01-30T13:11:40.963Z,97.22
2023-01-30T13:14:19.185Z,94.32
2023-01-30T13:17:01.172Z,94.64
2023-01-30T13:19:48.566Z,93.08
2023-01-30T13:22:28.014Z,91.50
2023-01-30T13:25:15.503Z,90.18
2023-01-30T13:27:47.681Z,88.29
2023-01-30T13:30:17.260Z,86.69
2023-01-30T13:32:48.788Z,86.18
2023-01-30T13:35:22.943Z,84.52
2023-01-30T13:37:50.941Z,83.75
2023-01-30T13:40:38.173Z,83.10
2023-01-30T13:43:23.132Z,83.07
2023-01-30T13:45:51.784Z,83.56
2023-01-30T13:48:42.831Z,83.05
2023-01-30T13:51:41.040Z,80.65
2023-01-30T13:54:33.654Z,79.76
2023-01-30T13:57:18.448Z,77.66
2023-01-30T13:59:59.818Z,77.38
2023-01-30T14:02:26.330Z,77.56
2023-01-30T14:04:54.364Z,76.70
2023-01-30T14:07:31.076Z,76.11
2023-01-30T14:10:19.804Z,76.20
2023-01-30T14:12:52.293Z,75.48
2023-01-30T14:15:24.921Z,75.36
2023-01-30T14:18:07.096Z,75.78
2023-01-30T14:20:36.985Z,76.26
2023-01-30T14:23:28.165Z,75.77
2023-01-30T14:25:55.771Z,75.06
2023-01-30T14:28:22.085Z,75.32
2023-01-30T14:30:49.771Z,74.08
2023-01-30T14:33:22.859Z,74.86
2023-01-30T14:35:58.147Z,74.88
2023-01-30T14:38:26.045Z,74.95
2023-01-30T14:40:58.537Z,75.95
2023-01-30T14:43:35.729Z,74.62
2023-01-30T14:46:32.630Z,74.61
2023-01-30T14:49:26.862Z,74.37
2023-01-30T14:51:54.124Z,75.29
2023-01-30T14:54:33.270Z,75.30
2023-01-30T14:57:19.563Z,75.55
2023-01-30T14:59:45.844Z,75.25
2023-01-30T15:02:12.164Z,75.06
2023-01-30T15:04:44.293Z,75.33
2023-01-30T15:07:30.528Z,75.50
2023-01-30T15:10:03.894Z,75.10
2023-01-30T15:12:37.270Z,75.47
2023-01-30T15:15:25.486Z,74.77
2023-01-30T15:18:17.721Z,75.41
2023-01-30T15:21:17.749Z,74.63
2023-01-30T15:23:54.580Z,74.68
2023-01-30T15:26:46.825Z,74.57
2023-01-30T15:29:55.816Z,74.58
2023-01-30T15:32:24.768Z,73.95
2023-01-30T15:35:00.017Z,74.58
2023-01-30T15:37:36.624Z,75.34
2023-01-30T15:40:14.870Z,75.37
2023-01-30T15:42:50.970Z,75.32
2023-01-30T15:45:27.901Z,75.38
2023-01-30T15:48:26.218Z,75.39
2023-01-30T15:50:55.188Z,75.51
2023-01-30T15:53:39.779Z,75.75
2023-01-30T15:56:11.805Z,75.35
2023-01-30T15:58:42.172Z,75.16
2023-01-30T16:01:11.223Z,75.11
2023-01-30T16:03:41.682Z,74.70
2023-01-30T16:06:21.517Z,75.20
2023-01-30T16:09:05.641Z,75.07
2023-01-30T16:11:43.112Z,74.76
2023-01-30T16:14:15.148Z,75.24
2023-01-30T16:16:47.735Z,75.26
2023-01-30T16:19:26.355Z,75.29
2023-01-30T16:21:55.740Z,75.07
2023-01-30T16:24:30.520Z,75.07
2023-01-30T16:27:01.252Z,74.28
2023-01-30T16:29:30.598Z,75.21
2023-01-30T16:31:57.274Z,75.26
2023-01-30T16:34:34.071Z,76.05
2023-01-30T16:37:18.697Z,76.91
2023-01-30T16:39:45.673Z,76.37
2023-01-30T16:42:29.203Z,76.40
2023-01-30T16:45:10.705Z,76.23
2023-01-30T16:47:37.217Z,76.56
2023-01-30T16:50:04.983Z,76.97
2023-01-30T16:52:38.301Z,76.84
2023-01-30T16:55:07.909Z,76.88
2023-01-30T16:57:39.841Z,77.73
2023-01-30T17:00:21.865Z,78.07
2023-01-30T17:02:55.353Z,77.40
2023-01-30T17:05:27.395Z,76.95
2023-01-30T17:07:54.815Z,77.17
2023-01-30T17:10:39.171Z,77.35
2023-01-30T17:13:32.734Z,77.47
2023-01-30T17:16:23.924Z,77.32
2023-01-30T17:18:52.814Z,76.95
2023-01-30T17:21:21.168Z,76.95
2023-01-30T17:23:56.083Z,76.48
2023-01-30T17:26:22.435Z,76.22
2023-01-30T17:28:48.854Z,76.55
2023-01-30T17:31:16.936Z,77.53
2023-01-30T17:33:43.783Z,78.19
2023-01-30T17:36:23.979Z,79.04
2023-01-30T17:38:50.678Z,79.35
2023-01-30T17:41:28.110Z,78.62
2023-01-30T17:43:54.424Z,78.80
2023-01-30T17:46:27.056Z,78.33
2023-01-30T17:48:53.432Z,78.18
2023-01-30T17:51:19.749Z,77.68
2023-01-30T17:53:46.047Z,77.84
2023-01-30T17:56:19.551Z,78.05
2023-01-30T17:58:45.864Z,78.59
2023-01-30T18:01:12.173Z,78.40
2023-01-30T18:03:38.476Z,78.28
2023-01-30T18:06:05.283Z,78.84
2023-01-30T18:08:31.596Z,78.98
2023-01-30T18:10:57.895Z,79.81
2023-01-30T18:13:24.281Z,79.69
2023-01-30T18:15:57.036Z,79.54
2023-01-30T18:18:23.371Z,79.51
2023-01-30T18:20:49.719Z,79.96
2023-01-30T18:23:16.141Z,79.79
2023-01-30T18:25:42.486Z,80.09
2023-01-30T18:28:10.984Z,79.95
2023-01-30T18:30:37.472Z,80.48
2023-01-30T18:33:03.867Z,80.50
2023-01-30T18:35:30.156Z,80.60
2023-01-30T18:38:00.772Z,81.49
2023-01-30T18:40:28.853Z,81.47
2023-01-30T18:42:55.152Z,81.35
2023-01-30T18:45:21.428Z,81.54
2023-01-30T18:47:47.678Z,81.36
2023-01-30T18:50:13.993Z,81.44
2023-01-30T18:52:40.283Z,82.35
2023-01-30T18:55:06.911Z,84.15
2023-01-30T18:57:33.228Z,85.69
2023-01-30T18:59:59.553Z,87.04
2023-01-30T19:02:25.958Z,88.00
2023-01-30T19:04:52.256Z,88.00
2023-01-30T19:07:18.577Z,88.76
2023-01-30T19:09:44.889Z,89.46
2023-01-30T19:12:11.175Z,88.90
2023-01-30T19:14:37.484Z,88.32
2023-01-30T19:17:03.827Z,87.75
2023-01-30T19:19:30.135Z,87.31
2023-01-30T19:21:56.447Z,87.65
2023-01-30T19:24:22.802Z,87.62
2023-01-30T19:26:50.114Z,86.83
2023-01-30T19:29:17.264Z,86.79
2023-01-30T19:31:43.657Z,86.25
2023-01-30T19:34:11.609Z,86.12
2023-01-30T19:36:37.957Z,85.95
2023-01-30T19:39:05.268Z,85.78
2023-01-30T19:41:34.358Z,85.29
2023-01-30T19:44:03.044Z,84.43
2023-01-30T19:46:30.146Z,83.60
2023-01-30T19:48:57.077Z,83.82
2023-01-30T19:51:26.563Z,83.80
2023-01-30T19:53:55.347Z,83.88
2023-01-30T19:56:22.783Z,83.72
2023-01-30T19:58:49.573Z,83.35
2023-01-30T20:01:16.758Z,83.16
2023-01-30T20:03:43.460Z,82.40
2023-01-30T20:06:18.827Z,82.48
2023-01-30T20:08:46.881Z,82.87
2023-01-30T20:11:15.876Z,82.43
2023-01-30T20:13:43.980Z,82.50
2023-01-30T20:16:12.576Z,82.58
2023-01-30T20:18:40.057Z,82.84
2023-01-30T20:21:15.305Z,82.11
2023-01-30T20:23:42.048Z,82.48
2023-01-30T20:26:11.437Z,82.25
2023-01-30T20:28:38.617Z,82.10
2023-01-30T20:31:13.900Z,82.36
2023-01-30T20:33:40.745Z,82.20
2023-01-30T20:36:13.387Z,82.59
2023-01-30T20:38:42.020Z,83.06
2023-01-30T20:41:20.179Z,84.16
2023-01-30T20:43:48.885Z,83.76
2023-01-30T20:46:18.757Z,83.54
2023-01-30T20:48:46.350Z,83.98
2023-01-30T20:51:19.148Z,83.19
2023-01-30T20:53:48.150Z,83.13
2023-01-30T20:56:14.857Z,83.42
2023-01-30T20:58:41.356Z,83.43
2023-01-30T21:01:13.146Z,83.81
2023-01-30T21:03:39.607Z,83.44
2023-01-30T21:06:06.098Z,83.49
2023-01-30T21:08:33.108Z,83.58
2023-01-30T21:11:11.240Z,83.34
2023-01-30T21:13:38.430Z,83.66
2023-01-30T21:16:11.111Z,83.62
2023-01-30T21:18:40.114Z,83.98
2023-01-30T21:21:08.193Z,84.15
2023-01-30T21:23:34.696Z,83.71
2023-01-30T21:26:09.349Z,83.91
2023-01-30T21:28:36.968Z,84.04
2023-01-30T21:31:08.351Z,84.12
2023-01-30T21:33:34.747Z,84.38
2023-01-30T21:36:02.067Z,85.13
2023-01-30T21:38:28.971Z,84.97
2023-01-30T21:40:55.425Z,85.19
2023-01-30T21:43:21.759Z,84.79
2023-01-30T21:45:48.132Z,84.48
2023-01-30T21:48:14.471Z,84.82
2023-01-30T21:50:41.096Z,84.63
2023-01-30T21:53:07.420Z,84.70
2023-01-30T21:55:33.728Z,85.05
2023-01-30T21:58:00.033Z,84.60
2023-01-30T22:00:26.352Z,84.52
2023-01-30T22:02:52.686Z,84.96
2023-01-30T22:05:19.115Z,84.15
2023-01-30T22:07:45.596Z,84.36
2023-01-30T22:10:11.891Z,84.13
2023-01-30T22:12:38.597Z,84.13
2023-01-30T22:15:06.151Z,84.71
2023-01-30T22:17:32.471Z,84.53
2023-01-30T22:19:58.827Z,84.22
2023-01-30T22:22:25.345Z,83.70
2023-01-30T22:24:52.284Z,84.21
2023-01-30T22:27:18.695Z,83.68
2023-01-30T22:29:44.997Z,83.80
2023-01-30T22:32:11.352Z,83.83
2023-01-30T22:34:38.100Z,83.66
2023-01-30T22:37:04.488Z,84.20
2023-01-30T22:39:30.801Z,83.86
2023-01-30T22:41:57.105Z,84.12
2023-01-30T22:44:23.445Z,84.33
2023-01-30T22:46:50.372Z,84.20
2023-01-30T22:49:16.719Z,84.74
2023-01-30T22:51:43.026Z,84.78
2023-01-30T22:54:12.998Z,84.85
2023-01-30T22:56:41.427Z,85.52
2023-01-30T22:59:08.259Z,85.11
2023-01-30T23:01:39.811Z,85.75
2023-01-30T23:04:19.797Z,86.43
2023-01-30T23:06:47.268Z,86.41
2023-01-30T23:09:16.344Z,86.60
2023-01-30T23:11:45.600Z,86.91
2023-01-30T23:14:16.435Z,87.67
2023-01-30T23:16:44.712Z,88.94
2023-01-30T23:19:13.001Z,89.65
2023-01-30T23:21:42.592Z,90.03
2023-01-30T23:24:11.149Z,90.80
2023-01-30T23:26:40.393Z,91.22
2023-01-30T23:29:09.584Z,91.00
2023-01-30T23:31:36.837Z,91.30
2023-01-30T23:34:05.382Z,91.29
2023-01-30T23:36:32.502Z,90.77
2023-01-30T23:39:00.258Z,91.02
2023-01-30T23:41:31.568Z,90.18
2023-01-30T23:43:59.044Z,90.19
2023-01-30T23:46:29.454Z,90.14
2023-01-30T23:48:57.768Z,89.70
2023-01-30T23:51:28.040Z,89.64
2023-01-30T23:53:55.656Z,89.64
2023-01-30T23:56:24.150Z,89.36
2023-01-30T23:58:51.146Z,88.85
